createdAt,value
2022-08-25T00:00:34.401Z,23.77
2022-08-25T00:04:36.315Z,23.77
2022-08-25T00:08:39.114Z,23.75
2022-08-25T00:12:40.592Z,23.69
2022-08-25T00:16:43.456Z,23.66
2022-08-25T00:20:49.090Z,23.63
2022-08-25T00:24:50.727Z,23.59
2022-08-25T00:28:54.173Z,23.54
2022-08-25T00:32:57.439Z,23.49
2022-08-25T00:37:00.877Z,23.47
2022-08-25T00:41:08.096Z,23.39
2022-08-25T00:45:09.729Z,23.34
2022-08-25T00:49:20.920Z,23.31
2022-08-25T00:53:27.611Z,23.25
2022-08-25T00:57:42.462Z,23.18
2022-08-25T01:01:44.205Z,23.09
2022-08-25T01:05:46.633Z,23.03
2022-08-25T01:09:49.907Z,22.93
2022-08-25T01:13:52.979Z,22.87
2022-08-25T01:17:55.883Z,22.87
2022-08-25T01:21:57.442Z,22.86
2022-08-25T01:26:02.346Z,22.85
2022-08-25T01:30:04.730Z,22.81
2022-08-25T01:34:07.677Z,22.80
2022-08-25T01:38:09.430Z,22.76
2022-08-25T01:42:24.527Z,22.77
2022-08-25T01:46:26.265Z,22.73
2022-08-25T01:50:27.982Z,22.74
2022-08-25T01:54:29.467Z,22.69
2022-08-25T01:58:35.987Z,22.64
2022-08-25T02:02:37.484Z,22.54
2022-08-25T02:06:44.166Z,22.41
2022-08-25T02:10:46.508Z,22.27
2022-08-25T02:14:48.821Z,22.13
2022-08-25T02:18:50.549Z,21.96
2022-08-25T02:22:56.723Z,21.84
2022-08-25T02:26:58.882Z,21.74
2022-08-25T02:31:01.737Z,21.66
2022-08-25T02:35:03.564Z,21.60
2022-08-25T02:39:06.551Z,21.54
2022-08-25T02:43:08.084Z,21.49
2022-08-25T02:47:09.669Z,21.43
2022-08-25T02:51:11.821Z,21.37
2022-08-25T02:55:14.371Z,21.34
2022-08-25T02:59:17.955Z,21.30
2022-08-25T03:03:20.497Z,21.27
2022-08-25T03:07:22.113Z,21.23
2022-08-25T03:11:26.540Z,21.19
2022-08-25T03:15:28.075Z,21.14
2022-08-25T03:19:32.299Z,21.11
2022-08-25T03:23:33.978Z,21.08
2022-08-25T03:27:35.474Z,21.05
2022-08-25T03:31:37.343Z,21.02
2022-08-25T03:35:38.844Z,20.98
2022-08-25T03:39:40.411Z,20.96
2022-08-25T03:43:41.974Z,20.91
2022-08-25T03:47:45.766Z,20.86
2022-08-25T03:51:48.119Z,20.78
2022-08-25T03:55:49.619Z,20.72
2022-08-25T03:59:51.755Z,20.65
2022-08-25T04:03:53.344Z,20.60
2022-08-25T04:07:57.642Z,20.52
2022-08-25T04:11:59.131Z,20.47
2022-08-25T04:16:00.584Z,20.42
2022-08-25T04:20:02.443Z,20.40
2022-08-25T04:24:04.183Z,20.41
2022-08-25T04:28:05.936Z,20.44
2022-08-25T04:32:08.210Z,20.46
2022-08-25T04:36:13.954Z,20.47
2022-08-25T04:40:16.291Z,20.53
2022-08-25T04:44:18.606Z,20.57
2022-08-25T04:48:20.140Z,20.60
2022-08-25T04:52:22.310Z,20.67
2022-08-25T04:56:26.859Z,20.69
2022-08-25T05:00:28.751Z,20.69
2022-08-25T05:04:30.550Z,20.69
2022-08-25T05:08:32.703Z,20.68
2022-08-25T05:12:34.426Z,20.73
2022-08-25T05:16:37.310Z,20.78
2022-08-25T05:20:39.010Z,20.83
2022-08-25T05:24:41.072Z,20.85
2022-08-25T05:28:42.821Z,20.89
2022-08-25T05:32:45.006Z,20.90
2022-08-25T05:36:46.962Z,20.97
2022-08-25T05:40:51.619Z,21.03
2022-08-25T05:44:53.118Z,21.11
2022-08-25T05:48:54.989Z,21.18
2022-08-25T05:52:56.584Z,21.27
2022-08-25T05:56:58.536Z,21.31
2022-08-25T06:01:23.700Z,21.37
2022-08-25T06:05:25.549Z,21.48
2022-08-25T06:09:27.104Z,21.60
2022-08-25T06:13:29.036Z,21.71
2022-08-25T06:17:31.826Z,21.80
2022-08-25T06:21:33.436Z,21.92
2022-08-25T06:25:36.190Z,21.98
2022-08-25T06:29:37.981Z,22.17
2022-08-25T06:33:39.579Z,22.30
2022-08-25T06:37:42.612Z,22.44
2022-08-25T06:41:44.293Z,22.53
2022-08-25T06:45:45.979Z,22.66
2022-08-25T06:49:47.546Z,22.85
2022-08-25T06:53:49.507Z,23.05
2022-08-25T06:57:55.180Z,23.21
2022-08-25T07:01:56.811Z,23.36
2022-08-25T07:05:58.405Z,23.58
2022-08-25T07:09:59.886Z,23.75
2022-08-25T07:14:02.589Z,23.96
2022-08-25T07:18:04.831Z,24.18
2022-08-25T07:22:07.797Z,24.43
2022-08-25T07:26:36.412Z,24.64
2022-08-25T07:30:37.882Z,24.82
2022-08-25T07:34:57.974Z,25.09
2022-08-25T07:38:59.936Z,25.38
2022-08-25T07:43:04.066Z,25.44
2022-08-25T07:47:07.138Z,25.68
2022-08-25T07:51:09.813Z,25.97
2022-08-25T07:55:17.805Z,26.19
2022-08-25T07:59:21.789Z,26.41
2022-08-25T08:03:44.681Z,26.65
2022-08-25T08:07:46.275Z,26.74
2022-08-25T08:11:53.501Z,26.86
2022-08-25T08:15:56.138Z,27.20
2022-08-25T08:19:58.158Z,27.50
2022-08-25T08:24:00.597Z,27.68
2022-08-25T08:28:02.449Z,27.86
2022-08-25T08:32:05.373Z,28.01
2022-08-25T08:36:08.967Z,28.16
2022-08-25T08:40:12.845Z,28.23
2022-08-25T08:44:26.233Z,28.37
2022-08-25T08:48:54.331Z,28.34
2022-08-25T08:53:15.039Z,28.61
2022-08-25T08:57:19.804Z,28.94
2022-08-25T09:01:30.387Z,29.11
2022-08-25T09:05:41.814Z,29.17
2022-08-25T09:09:45.643Z,29.28
2022-08-25T09:13:51.804Z,29.17
2022-08-25T09:17:54.679Z,29.36
2022-08-25T09:22:35.787Z,29.29
2022-08-25T09:26:51.027Z,29.48
2022-08-25T09:31:11.623Z,29.67
2022-08-25T09:35:21.503Z,29.93
2022-08-25T09:39:23.425Z,29.93
2022-08-25T09:43:33.268Z,30.16
2022-08-25T09:47:42.182Z,30.21
2022-08-25T09:51:44.307Z,30.18
2022-08-25T09:55:47.504Z,30.22
2022-08-25T09:59:53.767Z,30.52
2022-08-25T10:04:01.130Z,30.59
2022-08-25T10:08:10.207Z,30.87
2022-08-25T10:12:30.276Z,30.82
2022-08-25T10:16:36.022Z,30.81
2022-08-25T10:20:38.032Z,31.09
2022-08-25T10:24:46.525Z,31.21
2022-08-25T10:28:53.143Z,31.49
2022-08-25T10:33:14.698Z,31.67
2022-08-25T10:37:25.266Z,31.79
2022-08-25T10:41:33.008Z,31.69
2022-08-25T10:45:47.890Z,31.78
2022-08-25T10:49:59.284Z,32.11
2022-08-25T10:54:06.190Z,32.40
2022-08-25T10:58:14.678Z,32.52
2022-08-25T11:02:16.830Z,32.10
2022-08-25T11:06:26.502Z,32.34
2022-08-25T11:10:37.819Z,32.44
2022-08-25T11:14:49.844Z,32.24
2022-08-25T11:18:57.508Z,32.33
2022-08-25T11:23:08.072Z,32.77
2022-08-25T11:27:13.821Z,33.06
2022-08-25T11:31:17.400Z,33.19
2022-08-25T11:35:25.890Z,33.20
2022-08-25T11:39:45.622Z,33.44
2022-08-25T11:43:47.182Z,34.06
2022-08-25T11:47:59.073Z,34.58
2022-08-25T11:52:03.063Z,35.18
2022-08-25T11:56:10.544Z,35.90
2022-08-25T12:00:30.589Z,36.50
2022-08-25T12:04:44.821Z,36.49
2022-08-25T12:08:57.790Z,37.09
2022-08-25T12:12:59.408Z,37.21
2022-08-25T12:17:12.017Z,36.76
2022-08-25T12:21:15.118Z,37.34
2022-08-25T12:25:23.230Z,38.21
2022-08-25T12:29:30.562Z,38.98
2022-08-25T12:33:50.601Z,40.01
2022-08-25T12:38:01.336Z,39.80
2022-08-25T12:42:23.351Z,40.28
2022-08-25T12:46:32.372Z,40.39
2022-08-25T12:50:41.683Z,40.40
2022-08-25T12:54:54.665Z,40.27
2022-08-25T12:59:02.209Z,38.40
2022-08-25T13:03:15.753Z,37.52
2022-08-25T13:07:35.863Z,37.73
2022-08-25T13:11:43.246Z,38.77
2022-08-25T13:15:48.786Z,38.80
2022-08-25T13:20:15.708Z,39.46
2022-08-25T13:24:32.399Z,38.63
2022-08-25T13:28:50.367Z,37.89
2022-08-25T13:32:52.154Z,39.34
2022-08-25T13:37:12.360Z,39.97
2022-08-25T13:41:19.384Z,39.43
2022-08-25T13:45:25.691Z,37.79
2022-08-25T13:49:28.441Z,36.46
2022-08-25T13:53:30.647Z,37.53
2022-08-25T13:57:34.567Z,38.50
2022-08-25T14:01:49.231Z,36.88
2022-08-25T14:06:03.523Z,35.58
2022-08-25T14:10:08.103Z,34.84
2022-08-25T14:14:12.558Z,34.47
2022-08-25T14:18:30.766Z,34.01
2022-08-25T14:22:35.394Z,33.39
2022-08-25T14:26:37.962Z,32.80
2022-08-25T14:30:57.872Z,32.50
2022-08-25T14:35:01.798Z,32.35
2022-08-25T14:39:12.827Z,32.45
2022-08-25T14:43:15.509Z,33.41
2022-08-25T14:47:17.398Z,33.93
2022-08-25T14:51:19.764Z,34.02
2022-08-25T14:55:31.855Z,34.88
2022-08-25T14:59:34.304Z,35.68
2022-08-25T15:03:39.834Z,35.18
2022-08-25T15:07:59.774Z,35.12
2022-08-25T15:12:01.307Z,34.45
2022-08-25T15:16:03.046Z,34.07
2022-08-25T15:20:06.293Z,33.90
2022-08-25T15:24:09.423Z,33.61
2022-08-25T15:28:11.773Z,33.15
2022-08-25T15:32:19.441Z,32.82
2022-08-25T15:36:24.609Z,32.63
2022-08-25T15:40:26.824Z,32.31
2022-08-25T15:44:29.675Z,32.13
2022-08-25T15:48:32.119Z,32.20
2022-08-25T15:52:44.577Z,32.14
2022-08-25T15:56:49.002Z,31.89
2022-08-25T16:00:51.887Z,31.96
2022-08-25T16:04:58.253Z,32.55
2022-08-25T16:09:00.352Z,32.66
2022-08-25T16:13:02.242Z,32.55
2022-08-25T16:17:05.342Z,32.44
2022-08-25T16:21:12.695Z,32.45
2022-08-25T16:25:14.477Z,32.62
2022-08-25T16:29:17.332Z,32.40
2022-08-25T16:33:19.875Z,32.28
2022-08-25T16:37:23.123Z,32.17
2022-08-25T16:41:27.350Z,31.95
2022-08-25T16:45:29.109Z,31.76
2022-08-25T16:49:32.364Z,31.65
2022-08-25T16:53:52.680Z,31.56
2022-08-25T16:57:56.008Z,31.48
2022-08-25T17:01:57.642Z,31.32
2022-08-25T17:05:59.675Z,31.21
2022-08-25T17:10:01.602Z,31.16
2022-08-25T17:14:10.885Z,31.13
2022-08-25T17:18:13.763Z,31.13
2022-08-25T17:22:15.910Z,31.24
2022-08-25T17:26:27.520Z,31.13
2022-08-25T17:30:30.632Z,30.91
2022-08-25T17:34:32.584Z,30.82
2022-08-25T17:38:34.560Z,30.68
2022-08-25T17:42:36.076Z,30.56
2022-08-25T17:46:41.775Z,30.49
2022-08-25T17:50:49.000Z,30.74
2022-08-25T17:54:52.657Z,30.49
2022-08-25T17:58:55.408Z,30.17
2022-08-25T18:02:57.511Z,29.85
2022-08-25T18:06:59.023Z,29.55
2022-08-25T18:11:01.609Z,29.22
2022-08-25T18:15:04.626Z,28.92
2022-08-25T18:19:09.484Z,28.67
2022-08-25T18:23:12.677Z,28.39
2022-08-25T18:27:14.198Z,28.15
2022-08-25T18:31:15.870Z,27.91
2022-08-25T18:35:21.819Z,27.70
2022-08-25T18:39:46.991Z,27.53
2022-08-25T18:43:48.501Z,27.37
2022-08-25T18:47:53.447Z,27.24
2022-08-25T18:51:54.979Z,27.11
2022-08-25T18:55:58.126Z,26.98
2022-08-25T19:00:00.973Z,26.89
2022-08-25T19:04:02.874Z,26.79
2022-08-25T19:08:05.808Z,26.72
2022-08-25T19:12:11.807Z,26.61
2022-08-25T19:16:32.945Z,26.52
2022-08-25T19:20:35.678Z,26.46
2022-08-25T19:24:37.930Z,26.40
2022-08-25T19:28:39.960Z,26.34
2022-08-25T19:32:48.183Z,26.29
2022-08-25T19:36:50.964Z,26.22
2022-08-25T19:40:52.977Z,26.19
2022-08-25T19:44:54.538Z,26.13
2022-08-25T19:48:56.283Z,26.11
2022-08-25T19:52:58.039Z,26.09
2022-08-25T19:56:59.651Z,26.07
2022-08-25T20:01:01.473Z,26.05
2022-08-25T20:05:05.999Z,26.01
2022-08-25T20:09:07.662Z,25.98
2022-08-25T20:13:22.734Z,25.94
2022-08-25T20:17:26.046Z,25.89
2022-08-25T20:21:27.879Z,25.86
2022-08-25T20:25:36.159Z,25.84
2022-08-25T20:29:38.642Z,25.83
2022-08-25T20:33:40.227Z,25.81
2022-08-25T20:37:42.386Z,25.80
2022-08-25T20:41:43.864Z,25.79
2022-08-25T20:45:58.305Z,25.77
2022-08-25T20:50:06.021Z,25.80
2022-08-25T20:54:11.584Z,25.87
2022-08-25T20:58:14.185Z,25.91
2022-08-25T21:02:16.458Z,25.90
2022-08-25T21:06:18.781Z,25.90
2022-08-25T21:10:20.802Z,25.87
2022-08-25T21:14:23.279Z,25.80
2022-08-25T21:18:27.628Z,25.74
2022-08-25T21:22:36.953Z,25.70
2022-08-25T21:26:48.531Z,25.63
2022-08-25T21:30:50.585Z,25.57
2022-08-25T21:34:53.231Z,25.50
2022-08-25T21:38:56.937Z,25.44
2022-08-25T21:42:58.403Z,25.36
2022-08-25T21:47:01.316Z,25.30
2022-08-25T21:51:10.326Z,25.23
2022-08-25T21:55:16.038Z,25.15
2022-08-25T21:59:21.323Z,25.08
2022-08-25T22:03:23.515Z,24.97
2022-08-25T22:07:25.053Z,24.90
2022-08-25T22:11:27.432Z,24.85
2022-08-25T22:15:31.780Z,24.79
2022-08-25T22:19:33.300Z,24.72
2022-08-25T22:23:40.021Z,24.69
2022-08-25T22:27:45.979Z,24.69
2022-08-25T22:31:51.100Z,24.69
2022-08-25T22:35:59.729Z,24.68
2022-08-25T22:40:02.913Z,24.69
2022-08-25T22:44:06.057Z,24.70
2022-08-25T22:48:07.609Z,24.70
2022-08-25T22:52:11.472Z,24.68
2022-08-25T22:56:17.278Z,24.66
2022-08-25T23:00:20.414Z,24.62
2022-08-25T23:04:22.509Z,24.61
2022-08-25T23:08:32.629Z,24.55
2022-08-25T23:12:43.880Z,24.51
2022-08-25T23:16:45.746Z,24.44
2022-08-25T23:21:06.047Z,24.39
2022-08-25T23:25:07.713Z,24.38
2022-08-25T23:29:17.766Z,24.36
2022-08-25T23:33:21.539Z,24.40
2022-08-25T23:37:23.042Z,24.39
2022-08-25T23:41:25.498Z,24.39
2022-08-25T23:45:27.041Z,24.38
2022-08-25T23:49:28.625Z,24.34
2022-08-25T23:53:30.598Z,24.32
2022-08-25T23:57:32.083Z,24.29
